createdAt,value
2023-01-26T00:02:22.220Z,90.20
2023-01-26T00:04:50.470Z,90.20
2023-01-26T00:07:18.675Z,90.20
2023-01-26T00:09:46.841Z,90.10
2023-01-26T00:12:15.128Z,90.20
2023-01-26T00:14:53.324Z,90.10
2023-01-26T00:17:28.156Z,90.10
2023-01-26T00:19:58.254Z,89.90
2023-01-26T00:22:28.065Z,89.80
2023-01-26T00:24:56.297Z,89.80
2023-01-26T00:27:24.634Z,88.70
2023-01-26T00:29:54.861Z,88.70
2023-01-26T00:32:23.105Z,88.60
2023-01-26T00:34:51.374Z,88.10
2023-01-26T00:37:20.033Z,88.10
2023-01-26T00:39:48.265Z,88.00
2023-01-26T00:42:16.649Z,88.20
2023-01-26T00:44:45.029Z,88.20
2023-01-26T00:47:16.215Z,88.10
2023-01-26T00:49:47.279Z,88.00
2023-01-26T00:52:15.658Z,88.00
2023-01-26T00:54:44.001Z,88.80
2023-01-26T00:57:12.371Z,89.40
2023-01-26T00:59:40.918Z,90.00
2023-01-26T01:02:09.297Z,89.40
2023-01-26T01:04:39.006Z,89.10
2023-01-26T01:07:07.305Z,89.50
2023-01-26T01:09:35.683Z,89.60
2023-01-26T01:12:03.962Z,89.40
2023-01-26T01:14:32.469Z,89.20
2023-01-26T01:17:00.872Z,89.70
2023-01-26T01:19:29.226Z,89.20
2023-01-26T01:21:58.850Z,89.70
2023-01-26T01:24:27.163Z,89.70
2023-01-26T01:26:55.514Z,89.70
2023-01-26T01:29:23.771Z,89.60
2023-01-26T01:31:52.169Z,89.70
2023-01-26T01:34:20.427Z,89.60
2023-01-26T01:36:48.723Z,89.80
2023-01-26T01:39:18.415Z,89.80
2023-01-26T01:41:46.825Z,89.20
2023-01-26T01:44:21.006Z,89.00
2023-01-26T01:46:54.921Z,89.50
2023-01-26T01:49:27.691Z,89.40
2023-01-26T01:52:01.420Z,89.50
2023-01-26T01:54:36.477Z,89.90
2023-01-26T01:57:17.729Z,89.90
2023-01-26T01:59:51.118Z,89.90
2023-01-26T02:02:19.830Z,90.00
2023-01-26T02:04:49.255Z,90.00
2023-01-26T02:07:17.825Z,90.00
2023-01-26T02:10:05.379Z,89.80
2023-01-26T02:12:35.061Z,89.70
2023-01-26T02:15:04.551Z,89.70
2023-01-26T02:17:33.227Z,89.70
2023-01-26T02:20:06.221Z,89.20
2023-01-26T02:22:43.291Z,89.30
2023-01-26T02:25:23.907Z,89.90
2023-01-26T02:27:53.710Z,89.70
2023-01-26T02:30:23.840Z,89.10
2023-01-26T02:32:52.287Z,89.10
2023-01-26T02:35:21.055Z,89.30
2023-01-26T02:37:49.573Z,89.80
2023-01-26T02:40:26.094Z,89.80
2023-01-26T02:42:55.191Z,90.00
2023-01-26T02:45:24.949Z,90.00
2023-01-26T02:47:53.637Z,90.00
2023-01-26T02:50:20.911Z,90.00
2023-01-26T02:52:49.221Z,89.90
2023-01-26T02:55:22.445Z,89.90
2023-01-26T02:57:51.717Z,89.50
2023-01-26T03:00:23.099Z,89.50
2023-01-26T03:02:54.771Z,89.60
2023-01-26T03:05:25.435Z,89.80
2023-01-26T03:07:54.458Z,89.90
2023-01-26T03:10:27.142Z,90.90
2023-01-26T03:12:55.574Z,90.00
2023-01-26T03:15:43.829Z,90.00
2023-01-26T03:18:32.983Z,90.00
2023-01-26T03:21:19.569Z,90.10
2023-01-26T03:24:05.682Z,90.00
2023-01-26T03:26:52.291Z,89.90
2023-01-26T03:29:21.612Z,90.10
2023-01-26T03:31:51.283Z,89.90
2023-01-26T03:34:20.535Z,89.50
2023-01-26T03:36:49.825Z,89.20
2023-01-26T03:39:37.992Z,89.00
2023-01-26T03:42:24.538Z,88.80
2023-01-26T03:45:10.717Z,89.30
2023-01-26T03:48:01.065Z,88.70
2023-01-26T03:50:48.336Z,88.80
2023-01-26T03:53:36.295Z,89.40
2023-01-26T03:56:18.382Z,88.80
2023-01-26T03:58:49.653Z,88.60
2023-01-26T04:01:20.111Z,88.40
2023-01-26T04:04:11.321Z,89.20
2023-01-26T04:07:01.545Z,89.50
2023-01-26T04:09:30.043Z,88.60
2023-01-26T04:11:59.510Z,88.50
2023-01-26T04:14:50.055Z,88.60
2023-01-26T04:17:39.143Z,88.60
2023-01-26T04:20:29.478Z,88.20
2023-01-26T04:22:57.985Z,88.70
2023-01-26T04:25:26.382Z,88.60
2023-01-26T04:27:57.673Z,88.80
2023-01-26T04:30:26.024Z,88.40
2023-01-26T04:32:54.429Z,88.10
2023-01-26T04:35:24.097Z,88.80
2023-01-26T04:37:52.396Z,88.40
2023-01-26T04:40:20.867Z,88.30
2023-01-26T04:42:50.567Z,88.70
2023-01-26T04:45:19.314Z,88.60
2023-01-26T04:47:48.701Z,88.30
2023-01-26T04:50:18.551Z,88.10
2023-01-26T04:52:49.754Z,88.90
2023-01-26T04:55:18.507Z,89.40
2023-01-26T04:57:47.533Z,89.30
2023-01-26T05:00:16.203Z,89.30
2023-01-26T05:02:45.424Z,89.60
2023-01-26T05:05:13.978Z,90.00
2023-01-26T05:07:42.773Z,89.00
2023-01-26T05:10:15.754Z,88.70
2023-01-26T05:13:04.461Z,87.90
2023-01-26T05:15:44.656Z,87.70
2023-01-26T05:18:17.229Z,87.70
2023-01-26T05:20:57.832Z,87.60
2023-01-26T05:23:28.408Z,87.20
2023-01-26T05:26:24.308Z,86.80
2023-01-26T05:29:02.422Z,86.60
2023-01-26T05:31:30.805Z,86.60
2023-01-26T05:33:59.847Z,86.40
2023-01-26T05:36:28.201Z,86.50
2023-01-26T05:38:56.781Z,86.30
2023-01-26T05:41:31.868Z,86.30
2023-01-26T05:44:22.993Z,85.90
2023-01-26T05:47:06.559Z,86.00
2023-01-26T05:49:35.363Z,85.80
2023-01-26T05:52:03.626Z,86.00
2023-01-26T05:54:32.189Z,86.10
2023-01-26T05:57:02.955Z,86.10
2023-01-26T05:59:32.667Z,86.10
2023-01-26T06:02:01.974Z,86.00
2023-01-26T06:04:30.883Z,85.70
2023-01-26T06:07:01.538Z,85.60
2023-01-26T06:09:45.193Z,86.10
2023-01-26T06:12:31.583Z,85.90
2023-01-26T06:15:04.376Z,86.30
2023-01-26T06:17:38.377Z,86.40
2023-01-26T06:20:11.445Z,86.80
2023-01-26T06:22:40.343Z,86.90
2023-01-26T06:25:10.002Z,86.90
2023-01-26T06:27:42.615Z,87.20
2023-01-26T06:30:25.472Z,87.70
2023-01-26T06:32:55.954Z,87.50
2023-01-26T06:35:25.200Z,87.30
2023-01-26T06:37:56.195Z,87.30
2023-01-26T06:40:24.626Z,88.30
2023-01-26T06:42:55.355Z,88.00
2023-01-26T06:45:23.757Z,88.30
2023-01-26T06:47:55.977Z,88.50
2023-01-26T06:50:28.141Z,87.60
2023-01-26T06:52:57.728Z,87.00
2023-01-26T06:55:49.402Z,86.70
2023-01-26T06:58:45.762Z,86.80
2023-01-26T07:01:37.619Z,86.10
2023-01-26T07:04:05.982Z,87.00
2023-01-26T07:06:34.446Z,86.00
2023-01-26T07:09:02.671Z,86.00
2023-01-26T07:11:32.472Z,85.90
2023-01-26T07:14:02.127Z,85.60
2023-01-26T07:16:33.357Z,85.70
2023-01-26T07:19:01.916Z,85.60
2023-01-26T07:21:30.454Z,85.20
2023-01-26T07:23:58.679Z,85.50
2023-01-26T07:26:27.147Z,85.40
2023-01-26T07:28:55.498Z,85.50
2023-01-26T07:31:25.216Z,85.50
2023-01-26T07:33:53.590Z,85.30
2023-01-26T07:36:21.898Z,85.30
2023-01-26T07:38:50.143Z,85.20
2023-01-26T07:41:18.477Z,85.20
2023-01-26T07:43:46.679Z,85.00
2023-01-26T07:46:14.994Z,85.00
2023-01-26T07:48:44.937Z,84.90
2023-01-26T07:51:13.234Z,85.00
2023-01-26T07:53:43.553Z,84.70
2023-01-26T07:56:13.564Z,85.00
2023-01-26T07:58:41.932Z,85.00
2023-01-26T08:01:12.071Z,84.90
2023-01-26T08:03:41.044Z,84.90
2023-01-26T08:06:13.757Z,84.90
2023-01-26T08:08:43.260Z,85.20
2023-01-26T08:11:12.641Z,85.60
2023-01-26T08:13:41.059Z,85.90
2023-01-26T08:16:12.566Z,85.90
2023-01-26T08:18:41.830Z,85.30
2023-01-26T08:21:12.257Z,85.40
2023-01-26T08:23:41.484Z,85.20
2023-01-26T08:26:12.241Z,85.30
2023-01-26T08:28:40.891Z,85.30
2023-01-26T08:31:12.162Z,85.20
2023-01-26T08:33:41.570Z,85.00
2023-01-26T08:36:14.047Z,85.00
2023-01-26T08:38:42.838Z,85.20
2023-01-26T08:41:11.886Z,85.00
2023-01-26T08:43:40.364Z,85.10
2023-01-26T08:46:08.881Z,85.20
2023-01-26T08:48:37.531Z,85.00
2023-01-26T08:51:07.477Z,85.10
2023-01-26T08:53:38.404Z,84.70
2023-01-26T08:56:09.079Z,84.60
2023-01-26T08:58:37.736Z,84.50
2023-01-26T09:01:07.102Z,84.60
2023-01-26T09:03:36.274Z,84.70
2023-01-26T09:06:05.423Z,84.80
2023-01-26T09:08:34.008Z,84.50
2023-01-26T09:11:04.014Z,84.30
2023-01-26T09:13:32.335Z,84.30
2023-01-26T09:16:03.971Z,84.30
2023-01-26T09:18:32.638Z,84.10
2023-01-26T09:21:04.887Z,84.20
2023-01-26T09:23:33.663Z,83.90
2023-01-26T09:26:03.718Z,84.10
2023-01-26T09:28:32.062Z,83.80
2023-01-26T09:31:05.080Z,83.40
2023-01-26T09:33:33.945Z,83.40
2023-01-26T09:36:05.833Z,83.50
2023-01-26T09:38:34.125Z,83.70
2023-01-26T09:41:08.594Z,83.70
2023-01-26T09:43:41.711Z,83.40
2023-01-26T09:46:23.359Z,84.10
2023-01-26T09:48:57.159Z,84.20
2023-01-26T09:51:33.235Z,84.70
2023-01-26T09:54:05.588Z,85.20
2023-01-26T09:56:35.394Z,85.50
2023-01-26T09:59:21.114Z,85.80
2023-01-26T10:01:57.365Z,86.20
2023-01-26T10:04:33.902Z,86.70
2023-01-26T10:07:05.515Z,87.30
2023-01-26T10:09:49.777Z,87.10
2023-01-26T10:12:24.009Z,87.10
2023-01-26T10:14:57.667Z,87.30
2023-01-26T10:17:31.406Z,87.30
2023-01-26T10:20:05.061Z,86.20
2023-01-26T10:22:41.505Z,85.70
2023-01-26T10:25:16.732Z,85.40
2023-01-26T10:27:47.333Z,85.60
2023-01-26T10:30:17.129Z,86.20
2023-01-26T10:32:48.068Z,86.50
2023-01-26T10:35:19.901Z,86.90
2023-01-26T10:37:52.972Z,87.20
2023-01-26T10:40:22.474Z,87.50
2023-01-26T10:42:59.923Z,87.80
2023-01-26T10:45:31.048Z,87.60
2023-01-26T10:48:14.476Z,87.00
2023-01-26T10:50:42.983Z,87.20
2023-01-26T10:53:17.527Z,87.80
2023-01-26T10:56:00.099Z,86.80
2023-01-26T10:58:44.871Z,86.60
2023-01-26T11:01:15.631Z,86.50
2023-01-26T11:03:44.586Z,87.00
2023-01-26T11:06:16.780Z,87.50
2023-01-26T11:08:48.335Z,87.90
2023-01-26T11:11:27.626Z,88.00
2023-01-26T11:14:20.130Z,87.80
2023-01-26T11:17:01.669Z,86.60
2023-01-26T11:19:47.676Z,86.00
2023-01-26T11:22:20.714Z,85.80
2023-01-26T11:24:57.187Z,85.60
2023-01-26T11:27:38.250Z,85.10
2023-01-26T11:30:39.024Z,85.40
2023-01-26T11:33:18.148Z,86.20
2023-01-26T11:35:55.242Z,85.90
2023-01-26T11:38:38.956Z,86.50
2023-01-26T11:41:25.362Z,87.00
2023-01-26T11:44:06.054Z,85.60
2023-01-26T11:46:57.844Z,85.00
2023-01-26T11:49:33.346Z,83.90
2023-01-26T11:52:09.036Z,83.90
2023-01-26T11:54:59.138Z,83.50
2023-01-26T11:57:34.927Z,83.40
2023-01-26T12:00:09.425Z,83.40
2023-01-26T12:02:50.383Z,83.40
2023-01-26T12:05:22.678Z,83.50
2023-01-26T12:07:56.274Z,83.10
2023-01-26T12:10:28.838Z,83.20
2023-01-26T12:13:02.129Z,83.10
2023-01-26T12:15:35.647Z,82.90
2023-01-26T12:18:15.470Z,83.20
2023-01-26T12:20:46.680Z,83.50
2023-01-26T12:23:27.500Z,83.50
2023-01-26T12:25:59.826Z,83.80
2023-01-26T12:28:33.994Z,84.20
2023-01-26T12:31:09.246Z,83.90
2023-01-26T12:33:39.584Z,83.20
2023-01-26T12:36:19.456Z,83.10
2023-01-26T12:39:01.307Z,82.50
2023-01-26T12:41:37.879Z,82.00
2023-01-26T12:44:21.384Z,82.80
2023-01-26T12:46:56.080Z,83.40
2023-01-26T12:49:31.043Z,83.30
2023-01-26T12:52:05.556Z,83.10
2023-01-26T12:54:39.657Z,83.40
2023-01-26T12:57:13.925Z,83.70
2023-01-26T12:59:48.476Z,84.10
2023-01-26T13:02:38.600Z,84.70
2023-01-26T13:05:26.618Z,85.00
2023-01-26T13:07:55.363Z,85.10
2023-01-26T13:10:30.506Z,85.10
2023-01-26T13:13:02.729Z,85.20
2023-01-26T13:15:33.222Z,86.00
2023-01-26T13:18:03.083Z,85.60
2023-01-26T13:20:53.690Z,85.60
2023-01-26T13:23:52.909Z,85.10
2023-01-26T13:26:52.704Z,84.30
2023-01-26T13:29:36.540Z,84.00
2023-01-26T13:32:38.371Z,84.10
2023-01-26T13:35:13.149Z,85.40
2023-01-26T13:37:50.536Z,84.80
2023-01-26T13:40:22.280Z,84.30
2023-01-26T13:42:56.951Z,83.80
2023-01-26T13:45:33.926Z,84.10
2023-01-26T13:48:06.143Z,84.30
2023-01-26T13:50:38.029Z,84.00
2023-01-26T13:53:38.866Z,83.60
2023-01-26T13:56:30.768Z,83.70
2023-01-26T13:59:11.055Z,84.60
2023-01-26T14:01:44.661Z,83.70
2023-01-26T14:04:20.132Z,83.20
2023-01-26T14:06:53.768Z,82.80
2023-01-26T14:09:22.217Z,82.90
2023-01-26T14:11:59.668Z,82.40
2023-01-26T14:14:30.510Z,82.40
2023-01-26T14:16:59.711Z,82.10
2023-01-26T14:19:29.303Z,82.40
2023-01-26T14:22:00.151Z,81.70
2023-01-26T14:24:34.721Z,81.40
2023-01-26T14:27:05.033Z,81.40
2023-01-26T14:29:39.738Z,81.40
2023-01-26T14:32:16.788Z,81.50
2023-01-26T14:34:53.923Z,81.30
2023-01-26T14:37:22.535Z,80.90
2023-01-26T14:39:51.000Z,80.90
2023-01-26T14:42:21.816Z,81.10
2023-01-26T14:44:50.167Z,81.50
2023-01-26T14:47:22.403Z,81.40
2023-01-26T14:49:55.047Z,81.40
2023-01-26T14:52:26.106Z,81.40
2023-01-26T14:54:55.516Z,81.20
2023-01-26T14:57:27.230Z,81.40
2023-01-26T14:59:59.247Z,81.20
2023-01-26T15:02:37.181Z,80.90
2023-01-26T15:05:12.994Z,80.60
2023-01-26T15:07:44.105Z,80.30
2023-01-26T15:10:37.225Z,80.50
2023-01-26T15:13:19.731Z,80.50
2023-01-26T15:15:49.771Z,80.40
2023-01-26T15:18:20.482Z,80.20
2023-01-26T15:21:00.583Z,80.00
2023-01-26T15:23:31.524Z,80.10
2023-01-26T15:26:08.103Z,80.20
2023-01-26T15:28:38.840Z,80.00
2023-01-26T15:31:08.372Z,79.90
2023-01-26T15:33:51.196Z,80.00
2023-01-26T15:36:29.800Z,79.70
2023-01-26T15:39:01.771Z,79.50
2023-01-26T15:41:30.592Z,79.60
2023-01-26T15:44:00.462Z,79.70
2023-01-26T15:46:28.807Z,79.70
2023-01-26T15:48:57.163Z,79.50
2023-01-26T15:51:25.536Z,79.40
2023-01-26T15:53:53.808Z,79.50
2023-01-26T15:56:22.110Z,79.30
2023-01-26T15:58:50.414Z,79.30
2023-01-26T16:01:22.836Z,79.30
2023-01-26T16:03:51.979Z,78.90
2023-01-26T16:06:25.202Z,78.80
2023-01-26T16:08:53.582Z,78.10
2023-01-26T16:11:22.652Z,78.40
2023-01-26T16:14:02.952Z,78.20
2023-01-26T16:16:33.462Z,78.50
2023-01-26T16:19:01.925Z,78.00
2023-01-26T16:21:34.027Z,78.10
2023-01-26T16:24:03.262Z,79.00
2023-01-26T16:26:34.359Z,78.70
2023-01-26T16:29:02.594Z,78.20
2023-01-26T16:31:34.686Z,77.80
2023-01-26T16:34:03.516Z,78.90
2023-01-26T16:36:31.743Z,78.40
2023-01-26T16:39:00.088Z,78.30
2023-01-26T16:41:30.431Z,77.80
2023-01-26T16:44:00.401Z,77.70
2023-01-26T16:46:30.287Z,77.70
2023-01-26T16:49:00.348Z,77.30
2023-01-26T16:51:31.350Z,77.20
2023-01-26T16:54:00.417Z,77.30
2023-01-26T16:56:29.143Z,77.20
2023-01-26T16:58:57.460Z,77.30
2023-01-26T17:01:28.266Z,77.40
2023-01-26T17:03:57.132Z,76.70
2023-01-26T17:06:26.982Z,76.70
2023-01-26T17:08:55.267Z,77.30
2023-01-26T17:11:27.637Z,77.40
2023-01-26T17:13:57.060Z,77.70
2023-01-26T17:16:29.492Z,77.90
2023-01-26T17:18:58.150Z,77.90
2023-01-26T17:21:27.928Z,77.90
2023-01-26T17:23:58.877Z,78.10
2023-01-26T17:26:27.331Z,78.90
2023-01-26T17:28:56.940Z,78.30
2023-01-26T17:31:25.945Z,78.20
2023-01-26T17:33:55.574Z,78.40
2023-01-26T17:36:24.644Z,78.30
2023-01-26T17:38:54.346Z,78.50
2023-01-26T17:41:22.740Z,78.60
2023-01-26T17:43:51.731Z,78.50
2023-01-26T17:46:21.881Z,78.60
2023-01-26T17:48:50.863Z,78.50
2023-01-26T17:51:20.644Z,78.30
2023-01-26T17:53:50.719Z,78.30
2023-01-26T17:56:21.769Z,78.30
2023-01-26T17:58:51.395Z,78.60
2023-01-26T18:01:20.625Z,78.30
2023-01-26T18:03:49.212Z,78.50
2023-01-26T18:06:17.696Z,78.50
2023-01-26T18:08:46.188Z,78.40
2023-01-26T18:11:16.206Z,78.40
2023-01-26T18:13:46.035Z,78.30
2023-01-26T18:16:17.612Z,78.00
2023-01-26T18:18:45.971Z,78.30
2023-01-26T18:21:17.040Z,78.30
2023-01-26T18:23:47.035Z,78.10
2023-01-26T18:26:16.212Z,78.10
2023-01-26T18:28:46.939Z,78.10
2023-01-26T18:31:17.385Z,78.30
2023-01-26T18:33:46.675Z,78.60
2023-01-26T18:36:17.174Z,78.30
2023-01-26T18:38:50.155Z,78.30
2023-01-26T18:41:19.719Z,78.50
2023-01-26T18:43:51.514Z,78.50
2023-01-26T18:46:20.281Z,78.60
2023-01-26T18:48:49.098Z,78.60
2023-01-26T18:51:19.289Z,78.60
2023-01-26T18:53:47.788Z,78.60
2023-01-26T18:56:18.172Z,78.30
2023-01-26T18:58:46.879Z,78.60
2023-01-26T19:01:18.685Z,78.70
2023-01-26T19:03:47.919Z,78.50
2023-01-26T19:06:18.282Z,78.40
2023-01-26T19:08:47.238Z,78.50
2023-01-26T19:11:15.613Z,78.60
2023-01-26T19:13:48.782Z,78.70
2023-01-26T19:16:19.390Z,78.60
2023-01-26T19:18:47.726Z,78.50
2023-01-26T19:21:17.190Z,78.60
2023-01-26T19:23:45.891Z,78.70
2023-01-26T19:26:15.441Z,78.70
2023-01-26T19:28:43.764Z,78.60
2023-01-26T19:31:13.342Z,78.40
2023-01-26T19:33:43.097Z,78.60
2023-01-26T19:36:11.887Z,78.00
2023-01-26T19:38:40.688Z,77.70
2023-01-26T19:41:09.266Z,77.30
2023-01-26T19:43:37.845Z,77.40
2023-01-26T19:46:08.352Z,76.70
2023-01-26T19:48:36.956Z,77.20
2023-01-26T19:51:09.341Z,77.20
2023-01-26T19:53:40.191Z,77.20
2023-01-26T19:56:19.277Z,77.10
2023-01-26T19:58:51.328Z,76.90
2023-01-26T20:01:20.797Z,77.00
2023-01-26T20:03:54.018Z,77.50
2023-01-26T20:06:26.799Z,77.70
2023-01-26T20:08:55.684Z,77.70
2023-01-26T20:11:27.275Z,77.80
2023-01-26T20:13:56.837Z,77.80
2023-01-26T20:16:28.007Z,77.70
2023-01-26T20:18:56.764Z,77.80
2023-01-26T20:21:26.846Z,77.90
2023-01-26T20:23:56.211Z,78.10
2023-01-26T20:26:25.943Z,78.10
2023-01-26T20:28:57.958Z,78.10
2023-01-26T20:31:27.714Z,78.20
2023-01-26T20:33:56.522Z,78.20
2023-01-26T20:36:28.643Z,78.10
2023-01-26T20:38:57.291Z,77.90
2023-01-26T20:41:27.584Z,77.70
2023-01-26T20:44:00.493Z,77.70
2023-01-26T20:46:31.424Z,78.00
2023-01-26T20:49:01.224Z,77.80
2023-01-26T20:51:34.062Z,77.70
2023-01-26T20:54:02.952Z,77.70
2023-01-26T20:56:31.832Z,77.60
2023-01-26T20:59:00.483Z,78.20
2023-01-26T21:01:28.792Z,77.70
2023-01-26T21:03:57.126Z,77.60
2023-01-26T21:06:26.289Z,77.70
2023-01-26T21:08:58.513Z,77.70
2023-01-26T21:11:30.390Z,77.60
2023-01-26T21:14:00.588Z,77.50
2023-01-26T21:16:30.128Z,77.40
2023-01-26T21:18:58.793Z,77.40
2023-01-26T21:21:27.300Z,77.20
2023-01-26T21:23:57.017Z,77.20
2023-01-26T21:26:27.721Z,77.30
2023-01-26T21:28:58.114Z,77.20
2023-01-26T21:31:28.532Z,77.20
2023-01-26T21:33:57.555Z,77.20
2023-01-26T21:36:28.084Z,77.20
2023-01-26T21:38:59.435Z,77.20
2023-01-26T21:41:47.234Z,77.40
2023-01-26T21:44:17.493Z,77.60
2023-01-26T21:46:46.501Z,77.40
2023-01-26T21:49:15.441Z,77.30
2023-01-26T21:52:02.146Z,77.30
2023-01-26T21:54:32.496Z,77.60
2023-01-26T21:57:01.596Z,77.60
2023-01-26T21:59:29.596Z,77.70
2023-01-26T22:01:59.028Z,77.80
2023-01-26T22:04:29.181Z,77.90
2023-01-26T22:06:58.241Z,78.10
2023-01-26T22:09:26.607Z,78.30
2023-01-26T22:11:56.223Z,78.30
2023-01-26T22:14:26.168Z,78.20
2023-01-26T22:16:54.782Z,78.30
2023-01-26T22:19:23.153Z,78.40
2023-01-26T22:21:51.766Z,78.60
2023-01-26T22:24:20.686Z,78.60
2023-01-26T22:26:49.256Z,78.60
2023-01-26T22:29:19.061Z,78.60
2023-01-26T22:31:47.390Z,78.60
2023-01-26T22:34:15.682Z,78.60
2023-01-26T22:36:44.069Z,78.70
2023-01-26T22:39:13.235Z,78.40
2023-01-26T22:41:41.768Z,78.60
2023-01-26T22:44:10.698Z,78.50
2023-01-26T22:46:40.333Z,78.60
2023-01-26T22:49:08.554Z,78.70
2023-01-26T22:51:38.034Z,78.80
2023-01-26T22:54:06.671Z,79.10
2023-01-26T22:56:35.100Z,79.40
2023-01-26T22:59:03.412Z,79.80
2023-01-26T23:01:34.016Z,80.10
2023-01-26T23:04:04.028Z,80.60
2023-01-26T23:06:32.343Z,80.70
2023-01-26T23:09:01.258Z,80.20
2023-01-26T23:11:30.809Z,79.80
2023-01-26T23:14:00.295Z,78.80
2023-01-26T23:16:29.464Z,79.50
2023-01-26T23:18:59.403Z,79.00
2023-01-26T23:21:29.851Z,79.80
2023-01-26T23:23:58.409Z,80.10
2023-01-26T23:26:26.870Z,80.70
2023-01-26T23:28:55.168Z,80.00
2023-01-26T23:31:23.519Z,80.20
2023-01-26T23:33:51.894Z,80.30
2023-01-26T23:36:20.651Z,80.00
2023-01-26T23:38:50.730Z,80.30
2023-01-26T23:41:19.400Z,80.40
2023-01-26T23:43:47.662Z,80.40
2023-01-26T23:46:15.913Z,81.10
2023-01-26T23:48:44.163Z,81.30
2023-01-26T23:51:13.367Z,81.80
2023-01-26T23:53:41.962Z,81.90
2023-01-26T23:56:14.997Z,82.20
2023-01-26T23:58:43.357Z,82.60
